Maestro Tiger — V7TU8 — position and weather

sailwx.info

Track history (hours):
 
Tides and Currents Weather Stations Pressure Air Temp Water Temp Dewpoint Dewpoint Depression Visibility Wind Speed Wind Dir Waves Ship Positions

Maestro Tiger

Last reported at 2018-Jan-11 21:54 UTC. Time now 2018-Jan-23 08:14 UTC.
Position N 25°38' W 079°27'.
Warning: this ship's position is 11 days out of date.

Length 171 m; draft 8.6 m.

Type: Cargo ship. MMSI: 538003887.

Date/timePositionNaut miles runAvg speedWind from/ knotsBaromVisibWave heightAir tempDewpointWater temp
2018-Jan-11 21:54N 25°38' W 079°27'513.1
2018-Jan-11 21:30N 25°43' W 079°26'713.2
2018-Jan-11 21:00N 25°49' W 079°24'612.2
2018-Jan-11 20:30N 25°55' W 079°22'611.9
2018-Jan-11 20:00N 26°01' W 079°21'  
2018-Jan-02 17:48N 36°18' W 029°01'1212.4
2018-Jan-02 16:51N 36°21' W 028°47'512.6
2018-Jan-02 16:28N 36°22' W 028°41'712.7
2018-Jan-02 15:57N 36°23' W 028°33'712.5
2018-Jan-02 15:25N 36°25' W 028°25'512.6
2018-Jan-02 15:00N 36°26' W 028°19'1112.2
2018-Jan-02 14:05N 36°29' W 028°05'112.2
2018-Jan-02 14:00N 36°29' W 028°04'612.6
2018-Jan-02 13:30N 36°31' W 027°56'612.6
2018-Jan-02 13:00N 36°33' W 027°49'612.3
2018-Jan-02 12:30N 36°34' W 027°41'612.5
2018-Jan-02 12:01N 36°36' W 027°34'612.4
2018-Jan-02 11:30N 36°37' W 027°26'612.4
2018-Jan-02 11:00N 36°39' W 027°19'712.2
2018-Jan-02 10:28N 36°40' W 027°11'712.3
2018-Jan-02 09:53N 36°42' W 027°02'2812.1
2018-Jan-02 07:36N 36°49' W 026°29'112.5
2018-Jan-02 07:29N 36°49' W 026°27'612.3
2018-Jan-02 07:00N 36°51' W 026°20'612.1
2018-Jan-02 06:30N 36°52' W 026°13'612.0
2018-Jan-02 06:00N 36°54' W 026°05'612.0
2018-Jan-02 05:30N 36°55' W 025°58'1212.2
2018-Jan-02 04:30N 36°58' W 025°43'612.0
2018-Jan-02 04:01N 36°60' W 025°36'612.1
2018-Jan-02 03:30N 37°01' W 025°29'612.2
2018-Jan-02 03:00N 37°03' W 025°21'611.9
2018-Jan-02 02:30N 37°04' W 025°14'611.9
2018-Jan-02 02:00N 37°06' W 025°07'611.7
2018-Jan-02 01:30N 37°07' W 024°60'612.3
2018-Jan-02 01:00N 37°09' W 024°52'612.2
2018-Jan-02 00:30N 37°10' W 024°45'612.0
2018-Jan-02 00:00N 37°12' W 024°37'611.7
2018-Jan-01 23:30N 37°13' W 024°30'611.9
2018-Jan-01 23:00N 37°15' W 024°23'612.1
2018-Jan-01 22:30N 37°16' W 024°16'612.2
2018-Jan-01 22:00N 37°17' W 024°08'  
Track history (hours):
 
Tides and Currents Weather Stations Pressure Air Temp Water Temp Dewpoint Dewpoint Depression Visibility Wind Speed Wind Dir Waves Ship Positions

Maestro Tiger

Last reported at 2018-Jan-11 21:54 UTC. Time now 2018-Jan-23 08:14 UTC.
Position N 25°38' W 079°27'.
Warning: this ship's position is 11 days out of date.

Length 171 m; draft 8.6 m.

Type: Cargo ship. MMSI: 538003887.

Date/timePositionNaut miles runAvg speedWind from/ knotsBaromVisibWave heightAir tempDewpointWater temp
2018-Jan-11 21:54N 25°38' W 079°27'513.1
2018-Jan-11 21:30N 25°43' W 079°26'713.2
2018-Jan-11 21:00N 25°49' W 079°24'612.2
2018-Jan-11 20:30N 25°55' W 079°22'611.9
2018-Jan-11 20:00N 26°01' W 079°21'  
2018-Jan-02 17:48N 36°18' W 029°01'1212.4
2018-Jan-02 16:51N 36°21' W 028°47'512.6
2018-Jan-02 16:28N 36°22' W 028°41'712.7
2018-Jan-02 15:57N 36°23' W 028°33'712.5
2018-Jan-02 15:25N 36°25' W 028°25'512.6
2018-Jan-02 15:00N 36°26' W 028°19'1112.2
2018-Jan-02 14:05N 36°29' W 028°05'112.2
2018-Jan-02 14:00N 36°29' W 028°04'612.6
2018-Jan-02 13:30N 36°31' W 027°56'612.6
2018-Jan-02 13:00N 36°33' W 027°49'612.3
2018-Jan-02 12:30N 36°34' W 027°41'612.5
2018-Jan-02 12:01N 36°36' W 027°34'612.4
2018-Jan-02 11:30N 36°37' W 027°26'612.4
2018-Jan-02 11:00N 36°39' W 027°19'712.2
2018-Jan-02 10:28N 36°40' W 027°11'712.3
2018-Jan-02 09:53N 36°42' W 027°02'2812.1
2018-Jan-02 07:36N 36°49' W 026°29'112.5
2018-Jan-02 07:29N 36°49' W 026°27'612.3
2018-Jan-02 07:00N 36°51' W 026°20'612.1
2018-Jan-02 06:30N 36°52' W 026°13'612.0
2018-Jan-02 06:00N 36°54' W 026°05'612.0
2018-Jan-02 05:30N 36°55' W 025°58'1212.2
2018-Jan-02 04:30N 36°58' W 025°43'612.0
2018-Jan-02 04:01N 36°60' W 025°36'612.1
2018-Jan-02 03:30N 37°01' W 025°29'612.2
2018-Jan-02 03:00N 37°03' W 025°21'611.9
2018-Jan-02 02:30N 37°04' W 025°14'611.9
2018-Jan-02 02:00N 37°06' W 025°07'611.7
2018-Jan-02 01:30N 37°07' W 024°60'612.3
2018-Jan-02 01:00N 37°09' W 024°52'612.2
2018-Jan-02 00:30N 37°10' W 024°45'612.0
2018-Jan-02 00:00N 37°12' W 024°37'611.7
2018-Jan-01 23:30N 37°13' W 024°30'611.9
2018-Jan-01 23:00N 37°15' W 024°23'612.1
2018-Jan-01 22:30N 37°16' W 024°16'612.2
2018-Jan-01 22:00N 37°17' W 024°08'  

Dump ship's entire track history